createdAt,value
2022-11-08T00:09:32.719Z,0.70
2022-11-08T00:19:36.709Z,0.60
2022-11-08T00:29:42.122Z,0.60
2022-11-08T00:39:45.986Z,0.50
2022-11-08T00:49:51.355Z,0.40
2022-11-08T00:59:55.121Z,0.40
2022-11-08T01:10:01.706Z,0.30
2022-11-08T01:20:08.399Z,0.20
2022-11-08T01:30:14.261Z,0.10
2022-11-08T01:40:18.239Z,0.10
2022-11-08T01:50:23.955Z,0.00
2022-11-08T02:00:27.973Z,-0.10
2022-11-08T02:10:36.598Z,-0.20
2022-11-08T02:20:47.914Z,-0.20
2022-11-08T02:30:53.263Z,-0.30
2022-11-08T02:40:58.925Z,-0.40
2022-11-08T02:51:04.372Z,-0.40
2022-11-08T03:01:08.504Z,-0.50
2022-11-08T03:11:13.744Z,-0.50
2022-11-08T03:21:17.625Z,-0.50
2022-11-08T03:31:22.883Z,-0.60
2022-11-08T03:41:26.770Z,-0.60
2022-11-08T03:51:31.918Z,-0.50
2022-11-08T04:01:35.839Z,-0.40
2022-11-08T04:12:00.904Z,-0.40
2022-11-08T04:22:05.189Z,-0.40
2022-11-08T04:32:10.366Z,-0.50
2022-11-08T04:42:14.108Z,-0.60
2022-11-08T04:52:19.201Z,-0.60
2022-11-08T05:02:23.094Z,-0.50
2022-11-08T05:12:28.442Z,-0.70
2022-11-08T05:22:49.858Z,-0.90
2022-11-08T05:32:55.044Z,-0.90
2022-11-08T05:42:58.919Z,-1.00
2022-11-08T05:53:04.237Z,-1.00
2022-11-08T06:03:08.425Z,-0.90
2022-11-08T06:13:13.619Z,-0.70
2022-11-08T06:23:17.634Z,-0.50
2022-11-08T06:33:23.410Z,-0.10
2022-11-08T06:43:27.330Z,0.50
2022-11-08T06:53:32.883Z,1.30
2022-11-08T07:03:36.943Z,2.70
2022-11-08T07:13:41.777Z,4.10
2022-11-08T07:23:45.440Z,7.00
2022-11-08T07:33:50.368Z,13.70
2022-11-08T07:43:54.109Z,17.50
2022-11-08T07:54:02.952Z,20.70
2022-11-08T08:04:07.436Z,23.30
2022-11-08T08:14:12.573Z,25.10
2022-11-08T08:24:16.440Z,27.50
2022-11-08T08:34:21.356Z,30.00
2022-11-08T08:44:24.928Z,32.40
2022-11-08T08:54:29.993Z,33.30
2022-11-08T09:04:33.654Z,35.20
2022-11-08T09:14:38.669Z,37.60
2022-11-08T09:24:42.938Z,39.00
2022-11-08T09:34:48.112Z,39.70
2022-11-08T09:45:19.882Z,41.50
2022-11-08T09:55:31.703Z,42.40
2022-11-08T10:05:41.632Z,42.40
2022-11-08T10:15:55.534Z,43.20
2022-11-08T10:26:02.473Z,43.70
2022-11-08T10:36:13.614Z,43.50
2022-11-08T10:46:39.845Z,45.50
2022-11-08T10:56:56.902Z,45.60
2022-11-08T11:07:03.533Z,46.10
2022-11-08T11:17:18.263Z,46.60
2022-11-08T11:27:26.121Z,45.40
2022-11-08T11:37:41.482Z,46.50
2022-11-08T11:47:49.298Z,46.90
2022-11-08T11:58:07.755Z,46.90
2022-11-08T12:08:24.161Z,46.20
2022-11-08T12:19:11.937Z,46.10
2022-11-08T12:29:25.209Z,44.20
2022-11-08T12:39:36.958Z,43.10
2022-11-08T12:49:52.641Z,44.60
2022-11-08T13:00:06.359Z,43.80
2022-11-08T13:10:23.081Z,43.60
2022-11-08T13:20:42.283Z,41.80
2022-11-08T13:30:46.296Z,41.30
2022-11-08T13:41:17.297Z,40.70
2022-11-08T13:51:29.984Z,39.40
2022-11-08T14:02:03.357Z,37.60
2022-11-08T14:12:12.544Z,35.40
2022-11-08T14:22:21.988Z,32.70
2022-11-08T14:32:25.647Z,27.80
2022-11-08T14:42:30.908Z,21.70
2022-11-08T14:52:34.891Z,18.30
2022-11-08T15:02:42.690Z,16.20
2022-11-08T15:12:46.477Z,14.50
2022-11-08T15:22:56.334Z,13.10
2022-11-08T15:33:00.382Z,12.00
2022-11-08T15:43:05.744Z,11.10
2022-11-08T15:53:10.233Z,10.40
2022-11-08T16:03:15.487Z,9.70
2022-11-08T16:13:23.668Z,9.10
2022-11-08T16:23:28.780Z,8.60
2022-11-08T16:33:34.947Z,7.70
2022-11-08T16:43:40.045Z,7.10
2022-11-08T16:53:43.830Z,6.70
2022-11-08T17:03:50.757Z,6.50
2022-11-08T17:13:55.376Z,6.10
2022-11-08T17:24:01.068Z,5.70
2022-11-08T17:34:05.090Z,5.30
2022-11-08T17:44:10.946Z,5.00
2022-11-08T17:54:14.690Z,4.90
2022-11-08T18:04:19.863Z,4.60
2022-11-08T18:14:28.632Z,4.30
2022-11-08T18:24:34.387Z,4.10
2022-11-08T18:34:38.162Z,3.90
2022-11-08T18:44:43.159Z,3.70
2022-11-08T18:54:48.584Z,3.50
2022-11-08T19:04:53.615Z,3.30
2022-11-08T19:14:57.275Z,3.10
2022-11-08T19:25:02.209Z,2.90
2022-11-08T19:35:07.034Z,2.80
2022-11-08T19:45:15.668Z,2.60
2022-11-08T19:55:21.738Z,2.60
2022-11-08T20:05:28.731Z,2.50
2022-11-08T20:15:32.556Z,2.40
2022-11-08T20:25:37.805Z,2.20
2022-11-08T20:35:41.394Z,2.10
2022-11-08T20:45:47.595Z,2.00
2022-11-08T20:55:58.363Z,2.00
2022-11-08T21:06:06.237Z,1.90
2022-11-08T21:16:28.561Z,1.70
2022-11-08T21:26:36.446Z,1.60
2022-11-08T21:36:40.618Z,1.50
2022-11-08T21:46:46.086Z,1.30
2022-11-08T21:56:49.837Z,1.20
2022-11-08T22:06:54.892Z,0.90
2022-11-08T22:16:58.678Z,0.70
2022-11-08T22:27:04.088Z,0.50
2022-11-08T22:37:08.245Z,0.30
2022-11-08T22:47:13.617Z,0.20
2022-11-08T22:57:17.545Z,0.20
2022-11-08T23:07:22.652Z,0.10
2022-11-08T23:17:26.428Z,-0.10
2022-11-08T23:27:49.439Z,-0.20
2022-11-08T23:37:53.544Z,-0.30
2022-11-08T23:47:58.916Z,-0.40
2022-11-08T23:58:02.684Z,-0.50
